Time;durP1;ratioP1;P1;durP2;ratioP2;P2;SDS_P1;SDS_P2;PMS_P1;PMS_P2;Temp;Humidity;BMP_temperature;BMP_pressure;BME280_temperature;BME280_humidity;BME280_pressure;Samples;Min_cycle;Max_cycle;Signal;HPM_P1;HPM_P2
2023/01/01 00:02:01;;;;;;;0.00;0.00;;;;;;;;;;5095263;28;20646;-81
2023/01/01 00:04:30;;;;;;;0.00;0.00;;;;;;;;;;5095527;28;20198;-80
2023/01/01 00:06:59;;;;;;;0.00;0.00;;;;;;;;;;5085074;28;20214;-79
2023/01/01 00:12:14;;;;;;;0.00;0.00;;;;;;;;;;5075216;28;20202;-80
2023/01/01 00:14:43;;;;;;;0.00;0.00;;;;;;;;;;5075283;28;20663;-80
2023/01/01 00:17:11;;;;;;;0.00;0.00;;;;;;;;;;5074993;28;20314;-80
2023/01/01 00:19:40;;;;;;;0.00;0.00;;;;;;;;;;5075091;28;20248;-81
2023/01/01 00:22:08;;;;;;;0.00;0.00;;;;;;;;;;5074956;28;20214;-80
2023/01/01 00:24:58;;;;;;;0.00;0.00;;;;;;;;;;5074587;28;20208;-79
2023/01/01 00:27:26;;;;;;;0.00;0.00;;;;;;;;;;5089805;28;20241;-80
2023/01/01 00:29:55;;;;;;;0.00;0.00;;;;;;;;;;5095163;28;20255;-80
2023/01/01 00:32:23;;;;;;;0.00;0.00;;;;;;;;;;5094790;28;20197;-80
2023/01/01 00:34:52;;;;;;;0.00;0.00;;;;;;;;;;5083832;28;20198;-79
2023/01/01 00:37:20;;;;;;;0.00;0.00;;;;;;;;;;5075710;28;20227;-78
2023/01/01 00:48:03;;;;;;;0.00;0.00;;;;;;;;;;6082085;23;20421;-77
2023/01/01 00:50:32;;;;;;;0.00;0.00;;;;;;;;;;4604335;28;9999621;-76
2023/01/01 00:53:00;;;;;;;0.00;0.00;;;;;;;;;;4954629;28;20215;-77
2023/01/01 00:55:28;;;;;;;0.00;0.00;;;;;;;;;;4954443;28;20214;-76
2023/01/01 00:57:57;;;;;;;0.00;0.00;;;;;;;;;;4954541;28;20226;-76
2023/01/01 01:00:25;;;;;;;0.00;0.00;;;;;;;;;;4950668;28;20230;-75
2023/01/01 01:02:54;;;;;;;0.00;0.00;;;;;;;;;;4954718;29;20238;-76
2023/01/01 01:05:24;;;;;;;0.00;0.00;;;;;;;;;;4956152;28;20675;-75
2023/01/01 01:07:52;;;;;;;0.00;0.00;;;;;;;;;;4954898;28;20266;-75
2023/01/01 01:10:21;;;;;;;0.00;0.00;;;;;;;;;;4952589;28;20304;-75
2023/01/01 01:12:49;;;;;;;0.00;0.00;;;;;;;;;;4954660;29;20211;-75
2023/01/01 01:15:17;;;;;;;0.00;0.00;;;;;;;;;;4947517;29;20249;-78
2023/01/01 01:17:46;;;;;;;0.00;0.00;;;;;;;;;;4956064;28;20261;-77
2023/01/01 01:20:14;;;;;;;0.00;0.00;;;;;;;;;;4955726;29;20199;-77
2023/01/01 01:22:44;;;;;;;0.00;0.00;;;;;;;;;;4955135;29;20238;-77
2023/01/01 01:25:13;;;;;;;0.00;0.00;;;;;;;;;;4956477;29;20718;-77
2023/01/01 01:27:41;;;;;;;0.00;0.00;;;;;;;;;;4955939;29;20230;-77
2023/01/01 01:30:10;;;;;;;0.00;0.00;;;;;;;;;;4947832;28;20682;-78
2023/01/01 01:32:38;;;;;;;0.00;0.00;;;;;;;;;;4955105;29;20639;-77
2023/01/01 01:35:07;;;;;;;0.00;0.00;;;;;;;;;;4955958;29;20305;-77
2023/01/01 01:37:35;;;;;;;0.00;0.00;;;;;;;;;;4956677;29;20226;-78
2023/01/01 01:40:06;;;;;;;0.00;0.00;;;;;;;;;;4948327;28;20199;-77
2023/01/01 01:42:35;;;;;;;0.00;0.00;;;;;;;;;;4955519;29;20750;-77
2023/01/01 01:45:06;;;;;;;0.00;0.00;;;;;;;;;;4956204;28;20580;-77
2023/01/01 01:47:36;;;;;;;0.00;0.00;;;;;;;;;;4954733;28;20233;-76
2023/01/01 01:50:08;;;;;;;0.00;0.00;;;;;;;;;;4954791;28;20213;-77
2023/01/01 01:52:38;;;;;;;0.00;0.00;;;;;;;;;;4955371;29;20626;-77
2023/01/01 01:55:10;;;;;;;0.00;0.00;;;;;;;;;;4954824;28;20210;-77
2023/01/01 01:57:39;;;;;;;0.00;0.00;;;;;;;;;;4941454;29;20626;-77
2023/01/01 02:00:09;;;;;;;0.00;0.00;;;;;;;;;;4950913;28;20215;-77
2023/01/01 02:02:41;;;;;;;0.00;0.00;;;;;;;;;;4955712;29;20233;-77
2023/01/01 02:05:09;;;;;;;0.00;0.00;;;;;;;;;;4952424;28;20206;-77
2023/01/01 02:07:38;;;;;;;0.00;0.00;;;;;;;;;;4948535;29;20226;-77
2023/01/01 02:10:07;;;;;;;0.00;0.00;;;;;;;;;;4949529;28;20205;-77
2023/01/01 02:12:36;;;;;;;0.00;0.00;;;;;;;;;;4954814;29;20211;-77
2023/01/01 02:15:06;;;;;;;0.00;0.00;;;;;;;;;;4954926;29;20234;-77
2023/01/01 02:17:35;;;;;;;0.00;0.00;;;;;;;;;;4952872;29;20229;-77
2023/01/01 02:20:20;;;;;;;0.00;0.00;;;;;;;;;;4954217;28;20289;-78
2023/01/01 02:22:58;;;;;;;0.00;0.00;;;;;;;;;;4944148;29;20223;-77
2023/01/01 02:25:39;;;;;;;0.00;0.00;;;;;;;;;;4952679;29;20206;-77
2023/01/01 02:28:11;;;;;;;0.00;0.00;;;;;;;;;;4956071;29;20202;-77
2023/01/01 02:30:42;;;;;;;0.00;0.00;;;;;;;;;;4955581;28;20217;-77
2023/01/01 02:33:14;;;;;;;0.00;0.00;;;;;;;;;;4954706;28;20226;-78
2023/01/01 02:35:45;;;;;;;0.00;0.00;;;;;;;;;;4954944;28;20246;-77
2023/01/01 02:38:15;;;;;;;0.00;0.00;;;;;;;;;;4956339;29;20683;-77
2023/01/01 02:40:45;;;;;;;0.00;0.00;;;;;;;;;;4954987;28;20210;-78
2023/01/01 02:43:14;;;;;;;0.00;0.00;;;;;;;;;;4953442;29;20227;-77
2023/01/01 02:45:51;;;;;;;0.00;0.00;;;;;;;;;;4952260;29;20229;-77
2023/01/01 02:48:39;;;;;;;0.00;0.00;;;;;;;;;;4955572;29;20207;-77
2023/01/01 02:51:12;;;;;;;0.00;0.00;;;;;;;;;;4957033;28;20215;-77
2023/01/01 02:53:42;;;;;;;0.00;0.00;;;;;;;;;;4955431;28;20273;-77
2023/01/01 02:56:15;;;;;;;0.00;0.00;;;;;;;;;;4955060;29;20234;-77
2023/01/01 03:01:37;;;;;;;0.00;0.00;;;;;;;;;;4937070;29;20227;-77
2023/01/01 03:04:10;;;;;;;0.00;0.00;;;;;;;;;;4954540;29;20199;-77
2023/01/01 03:06:41;;;;;;;0.00;0.00;;;;;;;;;;4944794;29;20226;-77
2023/01/01 03:09:13;;;;;;;0.00;0.00;;;;;;;;;;4956648;28;20662;-77
2023/01/01 03:11:47;;;;;;;0.00;0.00;;;;;;;;;;4959445;28;20233;-76
2023/01/01 03:14:20;;;;;;;0.00;0.00;;;;;;;;;;4957621;28;20238;-78
2023/01/01 03:16:51;;;;;;;0.00;0.00;;;;;;;;;;4959535;28;20246;-77
2023/01/01 03:19:20;;;;;;;0.00;0.00;;;;;;;;;;4958718;29;20206;-77
2023/01/01 03:21:50;;;;;;;0.00;0.00;;;;;;;;;;4958761;28;20277;-77
2023/01/01 03:24:22;;;;;;;0.00;0.00;;;;;;;;;;4955387;29;20261;-77
2023/01/01 03:26:51;;;;;;;0.00;0.00;;;;;;;;;;4958874;28;20766;-77
2023/01/01 03:29:20;;;;;;;0.00;0.00;;;;;;;;;;4958301;29;20691;-77
2023/01/01 03:31:52;;;;;;;0.00;0.00;;;;;;;;;;4958877;28;20198;-78
2023/01/01 03:34:24;;;;;;;0.00;0.00;;;;;;;;;;4957644;28;20265;-77
2023/01/01 03:36:54;;;;;;;0.00;0.00;;;;;;;;;;4958319;28;20227;-77
2023/01/01 03:39:24;;;;;;;0.00;0.00;;;;;;;;;;4957115;29;20206;-78
2023/01/01 03:41:54;;;;;;;0.00;0.00;;;;;;;;;;4957767;28;20265;-77
2023/01/01 03:44:26;;;;;;;0.00;0.00;;;;;;;;;;4957905;29;20670;-77
2023/01/01 03:46:56;;;;;;;0.00;0.00;;;;;;;;;;4957814;28;20286;-76
2023/01/01 03:49:25;;;;;;;0.00;0.00;;;;;;;;;;4956664;29;20293;-76
2023/01/01 03:51:59;;;;;;;0.00;0.00;;;;;;;;;;4955708;28;20237;-78
2023/01/01 03:54:31;;;;;;;0.00;0.00;;;;;;;;;;4956246;29;20261;-76
2023/01/01 03:57:04;;;;;;;0.00;0.00;;;;;;;;;;4957058;28;20636;-77
2023/01/01 03:59:36;;;;;;;0.00;0.00;;;;;;;;;;4951356;29;20556;-76
2023/01/01 04:02:07;;;;;;;0.00;0.00;;;;;;;;;;4955804;29;20297;-77
2023/01/01 04:04:36;;;;;;;0.00;0.00;;;;;;;;;;4957187;28;20561;-76
2023/01/01 04:07:05;;;;;;;0.00;0.00;;;;;;;;;;4956026;28;20655;-76
2023/01/01 04:09:44;;;;;;;0.00;0.00;;;;;;;;;;4956628;28;20261;-76
2023/01/01 04:12:13;;;;;;;0.00;0.00;;;;;;;;;;4955902;29;20263;-77
2023/01/01 04:14:42;;;;;;;0.00;0.00;;;;;;;;;;4957302;29;20273;-77
2023/01/01 04:17:12;;;;;;;0.00;0.00;;;;;;;;;;4956768;28;20661;-77
2023/01/01 04:19:41;;;;;;;0.00;0.00;;;;;;;;;;4955905;28;20230;-77
2023/01/01 04:22:09;;;;;;;0.00;0.00;;;;;;;;;;4955603;29;20215;-77
2023/01/01 04:24:38;;;;;;;0.00;0.00;;;;;;;;;;4957815;28;20688;-77
2023/01/01 04:27:06;;;;;;;0.00;0.00;;;;;;;;;;4956511;28;20777;-77
2023/01/01 04:29:35;;;;;;;0.00;0.00;;;;;;;;;;4954816;28;20261;-77
2023/01/01 04:32:03;;;;;;;0.00;0.00;;;;;;;;;;4956181;29;20232;-77
2023/01/01 04:34:33;;;;;;;0.00;0.00;;;;;;;;;;4955455;29;20659;-77
2023/01/01 04:37:01;;;;;;;0.00;0.00;;;;;;;;;;4955489;28;20715;-76
2023/01/01 04:39:35;;;;;;;0.00;0.00;;;;;;;;;;4953869;29;20245;-77
2023/01/01 04:42:03;;;;;;;0.00;0.00;;;;;;;;;;4954884;28;20210;-76
2023/01/01 04:44:32;;;;;;;0.00;0.00;;;;;;;;;;4949539;29;20281;-76
2023/01/01 04:47:00;;;;;;;0.00;0.00;;;;;;;;;;4955388;29;20281;-78
2023/01/01 04:49:29;;;;;;;0.00;0.00;;;;;;;;;;4955835;28;20219;-76
2023/01/01 04:51:58;;;;;;;0.00;0.00;;;;;;;;;;4955905;29;20266;-77
2023/01/01 04:54:27;;;;;;;0.00;0.00;;;;;;;;;;4956118;28;20218;-77
2023/01/01 04:56:55;;;;;;;0.00;0.00;;;;;;;;;;4955215;28;20219;-77
2023/01/01 04:59:24;;;;;;;0.00;0.00;;;;;;;;;;4952368;29;20250;-77
2023/01/01 05:01:52;;;;;;;0.00;0.00;;;;;;;;;;4954906;29;20209;-78
2023/01/01 05:04:21;;;;;;;0.00;0.00;;;;;;;;;;4954971;29;20694;-77
2023/01/01 05:06:49;;;;;;;0.00;0.00;;;;;;;;;;4955212;28;20285;-77
2023/01/01 05:09:19;;;;;;;0.00;0.00;;;;;;;;;;4950591;29;20647;-77
2023/01/01 05:11:48;;;;;;;0.00;0.00;;;;;;;;;;4953253;29;20257;-77
2023/01/01 05:14:16;;;;;;;0.00;0.00;;;;;;;;;;4955612;29;20206;-77
2023/01/01 05:16:44;;;;;;;0.00;0.00;;;;;;;;;;4937306;29;20235;-77
2023/01/01 05:19:13;;;;;;;0.00;0.00;;;;;;;;;;4954791;29;20206;-76
2023/01/01 05:21:41;;;;;;;0.00;0.00;;;;;;;;;;4954274;28;20309;-76
2023/01/01 05:24:10;;;;;;;0.00;0.00;;;;;;;;;;4954150;29;20222;-77
2023/01/01 05:26:41;;;;;;;0.00;0.00;;;;;;;;;;4956778;29;20721;-77
2023/01/01 05:29:10;;;;;;;0.00;0.00;;;;;;;;;;4955495;29;20621;-77
2023/01/01 05:31:44;;;;;;;0.00;0.00;;;;;;;;;;4955286;28;20213;-77
2023/01/01 05:34:13;;;;;;;0.00;0.00;;;;;;;;;;4954851;29;20230;-77
2023/01/01 05:36:41;;;;;;;0.00;0.00;;;;;;;;;;4956974;29;20679;-77
2023/01/01 05:39:11;;;;;;;0.00;0.00;;;;;;;;;;4955223;29;20206;-77
2023/01/01 05:41:41;;;;;;;0.00;0.00;;;;;;;;;;4953970;29;20257;-77
2023/01/01 05:44:10;;;;;;;0.00;0.00;;;;;;;;;;4955477;29;20254;-77
2023/01/01 05:46:39;;;;;;;0.00;0.00;;;;;;;;;;4937033;29;20219;-77
2023/01/01 05:49:10;;;;;;;0.00;0.00;;;;;;;;;;4954678;29;20218;-77
2023/01/01 05:51:39;;;;;;;0.00;0.00;;;;;;;;;;4954959;28;20226;-77
2023/01/01 05:54:06;;;;;;;0.00;0.00;;;;;;;;;;4956035;29;20612;-76
2023/01/01 05:56:35;;;;;;;0.00;0.00;;;;;;;;;;4955835;28;20227;-77
2023/01/01 05:59:05;;;;;;;0.00;0.00;;;;;;;;;;4955797;29;20210;-77
2023/01/01 06:01:33;;;;;;;0.00;0.00;;;;;;;;;;4953764;28;20210;-77
2023/01/01 06:04:08;;;;;;;0.00;0.00;;;;;;;;;;4954786;29;20231;-77
2023/01/01 06:06:37;;;;;;;0.00;0.00;;;;;;;;;;4954529;28;20222;-76
2023/01/01 06:09:06;;;;;;;0.00;0.00;;;;;;;;;;4955555;29;20213;-77
2023/01/01 06:11:34;;;;;;;0.00;0.00;;;;;;;;;;4954492;28;20203;-77
2023/01/01 06:14:02;;;;;;;0.00;0.00;;;;;;;;;;4955120;29;20338;-77
2023/01/01 06:16:32;;;;;;;0.00;0.00;;;;;;;;;;4955568;28;20238;-77
2023/01/01 06:19:01;;;;;;;0.00;0.00;;;;;;;;;;4955334;29;20625;-77
2023/01/01 06:21:30;;;;;;;0.00;0.00;;;;;;;;;;4953974;28;20274;-77
2023/01/01 06:23:59;;;;;;;0.00;0.00;;;;;;;;;;4955429;29;20633;-77
2023/01/01 06:26:29;;;;;;;0.00;0.00;;;;;;;;;;4954952;28;20738;-77
2023/01/01 06:28:58;;;;;;;0.00;0.00;;;;;;;;;;4955340;28;20308;-78
2023/01/01 06:31:26;;;;;;;0.00;0.00;;;;;;;;;;4954328;28;20260;-77
2023/01/01 06:33:56;;;;;;;0.00;0.00;;;;;;;;;;4955183;29;20618;-78
2023/01/01 06:36:26;;;;;;;0.00;0.00;;;;;;;;;;4936818;29;20266;-77
2023/01/01 06:38:55;;;;;;;0.00;0.00;;;;;;;;;;4954536;29;20210;-77
2023/01/01 06:41:24;;;;;;;0.00;0.00;;;;;;;;;;4948972;29;20203;-77
2023/01/01 06:43:53;;;;;;;0.00;0.00;;;;;;;;;;4956035;28;20583;-77
2023/01/01 06:46:22;;;;;;;0.00;0.00;;;;;;;;;;4958270;28;20297;-77
2023/01/01 06:48:51;;;;;;;0.00;0.00;;;;;;;;;;4956646;29;20221;-78
2023/01/01 06:51:22;;;;;;;0.00;0.00;;;;;;;;;;4957623;29;20202;-77
2023/01/01 06:53:50;;;;;;;0.00;0.00;;;;;;;;;;4957947;29;20259;-77
2023/01/01 06:56:19;;;;;;;0.00;0.00;;;;;;;;;;4958237;28;20725;-78
2023/01/01 06:58:48;;;;;;;0.00;0.00;;;;;;;;;;4957386;29;20239;-76
2023/01/01 07:01:17;;;;;;;0.00;0.00;;;;;;;;;;4956919;28;20242;-77
2023/01/01 07:03:50;;;;;;;0.00;0.00;;;;;;;;;;4957092;29;20250;-77
2023/01/01 07:06:19;;;;;;;0.00;0.00;;;;;;;;;;4958158;29;20234;-77
2023/01/01 07:08:49;;;;;;;0.00;0.00;;;;;;;;;;4956580;29;20286;-77
2023/01/01 07:11:17;;;;;;;0.00;0.00;;;;;;;;;;4957768;29;20215;-77
2023/01/01 07:13:46;;;;;;;0.00;0.00;;;;;;;;;;4958578;29;20281;-78
2023/01/01 07:16:14;;;;;;;0.00;0.00;;;;;;;;;;4959084;28;20234;-77
2023/01/01 07:18:43;;;;;;;0.00;0.00;;;;;;;;;;4956301;28;20202;-77
2023/01/01 07:21:25;;;;;;;0.00;0.00;;;;;;;;;;4958425;28;20254;-76
2023/01/01 07:23:58;;;;;;;0.00;0.00;;;;;;;;;;4958124;28;20261;-77
2023/01/01 07:26:27;;;;;;;0.00;0.00;;;;;;;;;;4939523;29;20700;-77
2023/01/01 07:28:56;;;;;;;0.00;0.00;;;;;;;;;;4953908;29;21559;-76
2023/01/01 07:31:33;;;;;;;0.00;0.00;;;;;;;;;;4947366;29;20203;-77
2023/01/01 07:34:02;;;;;;;0.00;0.00;;;;;;;;;;4953425;29;20203;-76
2023/01/01 07:36:30;;;;;;;0.00;0.00;;;;;;;;;;4953968;28;20223;-77
2023/01/01 07:39:00;;;;;;;0.00;0.00;;;;;;;;;;4957516;29;20207;-77
2023/01/01 07:41:29;;;;;;;0.00;0.00;;;;;;;;;;4958106;28;20214;-76
2023/01/01 07:43:57;;;;;;;0.00;0.00;;;;;;;;;;4956139;29;20207;-77
2023/01/01 07:46:25;;;;;;;0.00;0.00;;;;;;;;;;4957768;28;20257;-77
2023/01/01 07:48:55;;;;;;;0.00;0.00;;;;;;;;;;4956394;29;20215;-76
2023/01/01 07:51:23;;;;;;;0.00;0.00;;;;;;;;;;4950198;29;20202;-77
2023/01/01 07:53:52;;;;;;;0.00;0.00;;;;;;;;;;4956055;29;20579;-76
2023/01/01 07:56:22;;;;;;;0.00;0.00;;;;;;;;;;4955953;28;20226;-77
2023/01/01 07:58:50;;;;;;;0.00;0.00;;;;;;;;;;4957164;28;20210;-77
2023/01/01 08:01:19;;;;;;;0.00;0.00;;;;;;;;;;4954901;28;20245;-77
2023/01/01 08:03:52;;;;;;;0.00;0.00;;;;;;;;;;4956765;28;20211;-76
2023/01/01 08:06:21;;;;;;;0.00;0.00;;;;;;;;;;4957010;28;20223;-77
2023/01/01 08:08:49;;;;;;;0.00;0.00;;;;;;;;;;4954816;29;20249;-77
2023/01/01 08:11:18;;;;;;;0.00;0.00;;;;;;;;;;4956367;28;20210;-77
2023/01/01 08:13:48;;;;;;;0.00;0.00;;;;;;;;;;4955132;28;20211;-76
2023/01/01 08:16:16;;;;;;;0.00;0.00;;;;;;;;;;4955611;29;20230;-78
2023/01/01 08:18:44;;;;;;;0.00;0.00;;;;;;;;;;4956233;28;20719;-77
2023/01/01 08:21:13;;;;;;;0.00;0.00;;;;;;;;;;4956779;28;20203;-77
2023/01/01 08:23:41;;;;;;;0.00;0.00;;;;;;;;;;4956482;28;20270;-77
2023/01/01 08:26:14;;;;;;;0.00;0.00;;;;;;;;;;4955278;29;20258;-76
2023/01/01 08:28:43;;;;;;;0.00;0.00;;;;;;;;;;4957112;29;20705;-76
2023/01/01 08:31:13;;;;;;;0.00;0.00;;;;;;;;;;4956225;28;20270;-77
2023/01/01 08:33:42;;;;;;;0.00;0.00;;;;;;;;;;4955794;28;20215;-77
2023/01/01 08:36:11;;;;;;;0.00;0.00;;;;;;;;;;4956562;28;20222;-77
2023/01/01 08:38:39;;;;;;;0.00;0.00;;;;;;;;;;4956633;29;20407;-77
2023/01/01 08:41:08;;;;;;;0.00;0.00;;;;;;;;;;4955268;29;20253;-76
2023/01/01 08:43:36;;;;;;;0.00;0.00;;;;;;;;;;4957663;29;20328;-77
2023/01/01 08:46:05;;;;;;;0.00;0.00;;;;;;;;;;4955359;29;20650;-77
2023/01/01 08:48:35;;;;;;;0.00;0.00;;;;;;;;;;4956895;29;20743;-76
2023/01/01 08:51:03;;;;;;;0.00;0.00;;;;;;;;;;4956287;28;20199;-77
2023/01/01 08:53:32;;;;;;;0.00;0.00;;;;;;;;;;4950510;28;20247;-77
2023/01/01 08:56:02;;;;;;;0.00;0.00;;;;;;;;;;4953445;29;20229;-77
2023/01/01 08:58:31;;;;;;;0.00;0.00;;;;;;;;;;4954587;29;20213;-77
2023/01/01 09:00:59;;;;;;;0.00;0.00;;;;;;;;;;4956174;28;20237;-77
2023/01/01 09:03:28;;;;;;;0.00;0.00;;;;;;;;;;4955177;29;20218;-76
2023/01/01 09:05:58;;;;;;;0.00;0.00;;;;;;;;;;4954821;28;20254;-76
2023/01/01 09:08:27;;;;;;;0.00;0.00;;;;;;;;;;4954757;29;20714;-77
2023/01/01 09:11:00;;;;;;;0.00;0.00;;;;;;;;;;4955843;29;20285;-77
2023/01/01 09:13:29;;;;;;;0.00;0.00;;;;;;;;;;4955491;29;20237;-76
2023/01/01 09:15:58;;;;;;;0.00;0.00;;;;;;;;;;4955158;28;20223;-77
2023/01/01 09:18:27;;;;;;;0.00;0.00;;;;;;;;;;4954818;29;20213;-77
2023/01/01 09:20:55;;;;;;;0.00;0.00;;;;;;;;;;4955816;29;20254;-77
2023/01/01 09:23:25;;;;;;;0.00;0.00;;;;;;;;;;4953649;28;20203;-76
2023/01/01 09:25:53;;;;;;;0.00;0.00;;;;;;;;;;4952287;28;20697;-77
2023/01/01 09:28:22;;;;;;;0.00;0.00;;;;;;;;;;4954634;29;20292;-77
2023/01/01 09:30:53;;;;;;;0.00;0.00;;;;;;;;;;4955634;28;20659;-77
2023/01/01 09:33:21;;;;;;;0.00;0.00;;;;;;;;;;4953888;29;20675;-77
2023/01/01 09:35:50;;;;;;;0.00;0.00;;;;;;;;;;4953596;28;20230;-76
2023/01/01 09:38:18;;;;;;;0.00;0.00;;;;;;;;;;4952922;29;20241;-77
2023/01/01 09:40:54;;;;;;;0.00;0.00;;;;;;;;;;4954808;29;20265;-77
2023/01/01 09:43:27;;;;;;;0.00;0.00;;;;;;;;;;4954625;28;20265;-76
2023/01/01 09:45:57;;;;;;;0.00;0.00;;;;;;;;;;4953393;28;20285;-77
2023/01/01 09:48:26;;;;;;;0.00;0.00;;;;;;;;;;4955517;29;20302;-77
2023/01/01 09:50:55;;;;;;;0.00;0.00;;;;;;;;;;4955387;28;20217;-77
2023/01/01 09:53:28;;;;;;;0.00;0.00;;;;;;;;;;4954459;28;20214;-77
2023/01/01 09:55:59;;;;;;;0.00;0.00;;;;;;;;;;4953038;29;20647;-78
2023/01/01 09:58:28;;;;;;;0.00;0.00;;;;;;;;;;4948864;29;20210;-77
2023/01/01 10:01:00;;;;;;;0.00;0.00;;;;;;;;;;4953969;29;20259;-78
2023/01/01 10:03:34;;;;;;;0.00;0.00;;;;;;;;;;4953616;29;20241;-78
2023/01/01 10:06:08;;;;;;;0.00;0.00;;;;;;;;;;4954752;28;20573;-77
2023/01/01 10:08:42;;;;;;;0.00;0.00;;;;;;;;;;4953773;29;20626;-78
2023/01/01 10:11:16;;;;;;;0.00;0.00;;;;;;;;;;4956574;28;20265;-77
2023/01/01 10:13:45;;;;;;;0.00;0.00;;;;;;;;;;4955360;28;20229;-78
2023/01/01 10:16:17;;;;;;;0.00;0.00;;;;;;;;;;4953560;28;20214;-77
2023/01/01 10:18:55;;;;;;;0.00;0.00;;;;;;;;;;4957636;28;20685;-77
2023/01/01 10:21:25;;;;;;;0.00;0.00;;;;;;;;;;4956951;29;20265;-78
2023/01/01 10:23:55;;;;;;;0.00;0.00;;;;;;;;;;4957678;29;20257;-77
2023/01/01 10:26:28;;;;;;;0.00;0.00;;;;;;;;;;4958307;28;20652;-78
2023/01/01 10:29:00;;;;;;;0.00;0.00;;;;;;;;;;4957437;29;20343;-78
2023/01/01 10:31:31;;;;;;;0.00;0.00;;;;;;;;;;4953376;29;20210;-77
2023/01/01 10:33:59;;;;;;;0.00;0.00;;;;;;;;;;4958374;29;20214;-77
2023/01/01 10:36:28;;;;;;;0.00;0.00;;;;;;;;;;4614346;28;10000101;-77
2023/01/01 10:38:56;;;;;;;0.00;0.00;;;;;;;;;;4956001;29;20249;-77
2023/01/01 10:41:26;;;;;;;0.00;0.00;;;;;;;;;;4950841;29;20226;-78
2023/01/01 10:43:54;;;;;;;0.00;0.00;;;;;;;;;;4956982;29;20242;-77
2023/01/01 10:46:24;;;;;;;0.00;0.00;;;;;;;;;;4956260;29;20261;-77
2023/01/01 10:49:07;;;;;;;0.00;0.00;;;;;;;;;;4957125;29;20206;-77
2023/01/01 10:51:39;;;;;;;0.00;0.00;;;;;;;;;;4953631;28;20198;-77
2023/01/01 10:54:19;;;;;;;0.00;0.00;;;;;;;;;;4954608;29;20238;-78
2023/01/01 10:56:56;;;;;;;0.00;0.00;;;;;;;;;;4957272;28;20226;-77
2023/01/01 10:59:35;;;;;;;0.00;0.00;;;;;;;;;;4957663;29;20210;-77
2023/01/01 11:02:16;;;;;;;0.00;0.00;;;;;;;;;;4954940;28;20206;-77
2023/01/01 11:04:45;;;;;;;0.00;0.00;;;;;;;;;;4956761;28;20206;-77
2023/01/01 11:07:27;;;;;;;0.00;0.00;;;;;;;;;;4957925;28;20234;-78
2023/01/01 11:09:57;;;;;;;0.00;0.00;;;;;;;;;;4951598;29;20229;-77
2023/01/01 11:12:35;;;;;;;0.00;0.00;;;;;;;;;;4964818;28;20261;-77
2023/01/01 11:15:26;;;;;;;0.00;0.00;;;;;;;;;;4953926;29;20217;-77
2023/01/01 11:18:03;;;;;;;0.00;0.00;;;;;;;;;;4956345;29;20312;-78
2023/01/01 11:20:31;;;;;;;0.00;0.00;;;;;;;;;;4949751;29;20268;-78
2023/01/01 11:23:00;;;;;;;0.00;0.00;;;;;;;;;;4956890;29;20734;-77
2023/01/01 11:25:29;;;;;;;0.00;0.00;;;;;;;;;;4963480;28;20562;-77
2023/01/01 11:28:14;;;;;;;0.00;0.00;;;;;;;;;;4954424;28;20265;-78
2023/01/01 11:30:43;;;;;;;0.00;0.00;;;;;;;;;;4611568;28;9999597;-79
2023/01/01 11:33:15;;;;;;;0.00;0.00;;;;;;;;;;4956698;28;20199;-78
2023/01/01 11:35:49;;;;;;;0.00;0.00;;;;;;;;;;4959289;29;20207;-78
2023/01/01 11:38:18;;;;;;;0.00;0.00;;;;;;;;;;4951867;29;20206;-78
2023/01/01 11:40:55;;;;;;;0.00;0.00;;;;;;;;;;4956781;28;20202;-81
2023/01/01 11:43:26;;;;;;;0.00;0.00;;;;;;;;;;4976561;28;20257;-81
2023/01/01 11:45:56;;;;;;;0.00;0.00;;;;;;;;;;4975939;28;20229;-81
2023/01/01 11:48:27;;;;;;;0.00;0.00;;;;;;;;;;4976633;28;20213;-80
2023/01/01 11:50:57;;;;;;;0.00;0.00;;;;;;;;;;4976452;28;20183;-81
2023/01/01 11:53:30;;;;;;;0.00;0.00;;;;;;;;;;4976570;28;20202;-82
2023/01/01 11:56:04;;;;;;;0.00;0.00;;;;;;;;;;4956285;28;20230;-80
2023/01/01 12:01:46;;;;;;;0.00;0.00;;;;;;;;;;4917444;29;20221;-78
2023/01/01 12:04:19;;;;;;;0.00;0.00;;;;;;;;;;4957153;29;20207;-78
2023/01/01 12:06:50;;;;;;;0.00;0.00;;;;;;;;;;4958191;28;20239;-78
2023/01/01 12:09:23;;;;;;;0.00;0.00;;;;;;;;;;4957138;29;20199;-77
2023/01/01 12:11:53;;;;;;;0.00;0.00;;;;;;;;;;4955308;29;20200;-77
2023/01/01 12:14:25;;;;;;;0.00;0.00;;;;;;;;;;4957393;28;20225;-77
2023/01/01 12:17:04;;;;;;;0.00;0.00;;;;;;;;;;4957788;29;20230;-78
2023/01/01 12:19:36;;;;;;;0.00;0.00;;;;;;;;;;4956809;29;20198;-77
2023/01/01 12:22:09;;;;;;;0.00;0.00;;;;;;;;;;4945833;29;20239;-78
2023/01/01 12:24:38;;;;;;;0.00;0.00;;;;;;;;;;4949045;29;20198;-78
2023/01/01 12:27:16;;;;;;;0.00;0.00;;;;;;;;;;4957153;29;20645;-78
2023/01/01 12:29:58;;;;;;;0.00;0.00;;;;;;;;;;4951531;28;20211;-78
2023/01/01 12:32:31;;;;;;;0.00;0.00;;;;;;;;;;4938134;29;20273;-78
2023/01/01 12:35:02;;;;;;;0.00;0.00;;;;;;;;;;4952935;29;20656;-78
2023/01/01 12:37:39;;;;;;;0.00;0.00;;;;;;;;;;4957242;28;20258;-77
2023/01/01 12:40:26;;;;;;;0.00;0.00;;;;;;;;;;4957200;28;20199;-78
2023/01/01 12:43:01;;;;;;;0.00;0.00;;;;;;;;;;4947480;28;20296;-78
2023/01/01 12:45:45;;;;;;;0.00;0.00;;;;;;;;;;4955523;29;20214;-78
2023/01/01 12:48:25;;;;;;;0.00;0.00;;;;;;;;;;4938277;29;20218;-77
2023/01/01 12:50:57;;;;;;;0.00;0.00;;;;;;;;;;4953478;29;20226;-77
2023/01/01 12:53:35;;;;;;;0.00;0.00;;;;;;;;;;4956957;29;20186;-78
2023/01/01 12:56:09;;;;;;;0.00;0.00;;;;;;;;;;4960866;28;20691;-78
2023/01/01 12:58:40;;;;;;;0.00;0.00;;;;;;;;;;4955535;28;20545;-78
2023/01/01 13:01:13;;;;;;;0.00;0.00;;;;;;;;;;4956851;28;20226;-77
2023/01/01 13:03:47;;;;;;;0.00;0.00;;;;;;;;;;4955992;28;20218;-78
2023/01/01 13:06:16;;;;;;;0.00;0.00;;;;;;;;;;4952649;29;20722;-78
2023/01/01 13:08:52;;;;;;;0.00;0.00;;;;;;;;;;4954022;28;20313;-77
2023/01/01 13:11:22;;;;;;;0.00;0.00;;;;;;;;;;4954894;29;20218;-77
2023/01/01 13:13:51;;;;;;;0.00;0.00;;;;;;;;;;4954408;29;20275;-78
2023/01/01 13:16:34;;;;;;;0.00;0.00;;;;;;;;;;4942422;29;20231;-78
2023/01/01 13:19:03;;;;;;;0.00;0.00;;;;;;;;;;4950021;28;20203;-78
2023/01/01 13:21:32;;;;;;;0.00;0.00;;;;;;;;;;4954393;28;20210;-78
2023/01/01 13:24:03;;;;;;;0.00;0.00;;;;;;;;;;4955211;29;20272;-78
2023/01/01 13:26:37;;;;;;;0.00;0.00;;;;;;;;;;4954167;29;20691;-78
2023/01/01 13:29:24;;;;;;;0.00;0.00;;;;;;;;;;4954490;29;20325;-78
2023/01/01 13:32:10;;;;;;;0.00;0.00;;;;;;;;;;4952163;28;20565;-77
2023/01/01 13:35:04;;;;;;;0.00;0.00;;;;;;;;;;4935992;29;20251;-78
2023/01/01 13:37:44;;;;;;;0.00;0.00;;;;;;;;;;4952762;29;20222;-78
2023/01/01 13:40:32;;;;;;;0.00;0.00;;;;;;;;;;4955108;28;20199;-78
2023/01/01 13:43:16;;;;;;;0.00;0.00;;;;;;;;;;4953812;29;20573;-78
2023/01/01 13:45:52;;;;;;;0.00;0.00;;;;;;;;;;4954867;29;20300;-78
2023/01/01 13:48:50;;;;;;;0.00;0.00;;;;;;;;;;4954044;28;20234;-77
2023/01/01 13:51:53;;;;;;;0.00;0.00;;;;;;;;;;4969218;28;20209;-78
2023/01/01 13:54:45;;;;;;;0.00;0.00;;;;;;;;;;4934879;29;20251;-78
2023/01/01 13:57:20;;;;;;;0.00;0.00;;;;;;;;;;4935622;29;20262;-78
2023/01/01 13:59:52;;;;;;;0.00;0.00;;;;;;;;;;4935569;29;20233;-78
2023/01/01 14:02:25;;;;;;;0.00;0.00;;;;;;;;;;4941568;29;20253;-78
2023/01/01 14:04:55;;;;;;;0.00;0.00;;;;;;;;;;4954276;28;20199;-78
2023/01/01 14:07:31;;;;;;;0.00;0.00;;;;;;;;;;4953568;28;20261;-77
2023/01/01 14:10:25;;;;;;;0.00;0.00;;;;;;;;;;4935148;29;20203;-77
2023/01/01 14:12:54;;;;;;;0.00;0.00;;;;;;;;;;4942895;29;20647;-77
2023/01/01 14:15:27;;;;;;;0.00;0.00;;;;;;;;;;4953641;28;20206;-77
2023/01/01 14:17:58;;;;;;;0.00;0.00;;;;;;;;;;4954486;29;20234;-78
2023/01/01 14:20:31;;;;;;;0.00;0.00;;;;;;;;;;4954172;28;20218;-77
2023/01/01 14:23:02;;;;;;;0.00;0.00;;;;;;;;;;4954160;28;20796;-77
2023/01/01 14:25:31;;;;;;;0.00;0.00;;;;;;;;;;4940730;29;20199;-77
2023/01/01 14:28:00;;;;;;;0.00;0.00;;;;;;;;;;4953527;28;20262;-78
2023/01/01 14:30:30;;;;;;;0.00;0.00;;;;;;;;;;4954202;28;20206;-78
2023/01/01 14:33:00;;;;;;;0.00;0.00;;;;;;;;;;4953491;28;20203;-78
2023/01/01 14:35:29;;;;;;;0.00;0.00;;;;;;;;;;4953137;29;20218;-78
2023/01/01 14:37:57;;;;;;;0.00;0.00;;;;;;;;;;4945264;29;20215;-78
2023/01/01 14:40:27;;;;;;;0.00;0.00;;;;;;;;;;4945229;29;20234;-77
2023/01/01 14:42:59;;;;;;;0.00;0.00;;;;;;;;;;4953250;29;20294;-77
2023/01/01 14:45:27;;;;;;;0.00;0.00;;;;;;;;;;4953655;29;20210;-78
2023/01/01 14:47:56;;;;;;;0.00;0.00;;;;;;;;;;4953401;29;20241;-78
2023/01/01 14:50:27;;;;;;;0.00;0.00;;;;;;;;;;4952483;29;20668;-78
2023/01/01 14:52:57;;;;;;;0.00;0.00;;;;;;;;;;4950767;28;20194;-78
2023/01/01 14:55:29;;;;;;;0.00;0.00;;;;;;;;;;4953170;29;20257;-78
2023/01/01 14:58:00;;;;;;;0.00;0.00;;;;;;;;;;4953651;28;20711;-78
2023/01/01 15:00:29;;;;;;;0.00;0.00;;;;;;;;;;4956761;28;20249;-78
2023/01/01 15:03:05;;;;;;;0.00;0.00;;;;;;;;;;4953422;29;20281;-78
2023/01/01 15:05:35;;;;;;;0.00;0.00;;;;;;;;;;4950041;29;20217;-78
2023/01/01 15:08:05;;;;;;;0.00;0.00;;;;;;;;;;4958912;29;20231;-77
2023/01/01 15:10:34;;;;;;;0.00;0.00;;;;;;;;;;4956335;29;20205;-77
2023/01/01 15:13:07;;;;;;;0.00;0.00;;;;;;;;;;4958648;29;20209;-77
2023/01/01 15:15:45;;;;;;;0.00;0.00;;;;;;;;;;4947892;28;20596;-78
2023/01/01 15:18:32;;;;;;;0.00;0.00;;;;;;;;;;4958211;29;20238;-78
2023/01/01 15:21:02;;;;;;;0.00;0.00;;;;;;;;;;4958692;28;20232;-78
2023/01/01 15:23:30;;;;;;;0.00;0.00;;;;;;;;;;4957977;28;20234;-78
2023/01/01 15:25:58;;;;;;;0.00;0.00;;;;;;;;;;4958836;28;20231;-77